Time;durP1;ratioP1;P1;durP2;ratioP2;P2;SDS_P1;SDS_P2;PMS_P1;PMS_P2;Temp;Humidity;BMP_temperature;BMP_pressure;BME280_temperature;BME280_humidity;BME280_pressure;Samples;Min_cycle;Max_cycle;Signal;HPM_P1;HPM_P2
2023/12/28 00:00:17;;;;;;;4.57;2.25;;;;;;;;;;6219471;23;20340;-81
2023/12/28 00:03:02;;;;;;;5.13;1.90;;;;;;;;;;6218577;23;20000;-80
2023/12/28 00:05:51;;;;;;;3.38;2.30;;;;;;;;;;6218702;23;20027;-80
2023/12/28 00:08:36;;;;;;;6.93;2.53;;;;;;;;;;6218979;23;20400;-80
2023/12/28 00:11:23;;;;;;;5.30;1.95;;;;;;;;;;6240510;22;20002;-82
2023/12/28 00:14:08;;;;;;;3.15;1.90;;;;;;;;;;6217995;23;20117;-81
2023/12/28 00:16:54;;;;;;;4.97;2.60;;;;;;;;;;6219407;23;19996;-80
2023/12/28 00:19:39;;;;;;;5.18;2.65;;;;;;;;;;6219045;23;20000;-80
2023/12/28 00:22:24;;;;;;;3.20;1.85;;;;;;;;;;6218393;23;20000;-81
2023/12/28 00:25:09;;;;;;;4.25;2.13;;;;;;;;;;6218065;23;20004;-81
2023/12/28 00:27:55;;;;;;;5.82;1.80;;;;;;;;;;6217857;23;20057;-80
2023/12/28 00:30:40;;;;;;;3.38;2.13;;;;;;;;;;6218288;23;20003;-80
2023/12/28 00:33:25;;;;;;;4.55;1.85;;;;;;;;;;6218326;23;19996;-80
2023/12/28 00:36:10;;;;;;;3.45;1.98;;;;;;;;;;6217758;23;20126;-79
2023/12/28 00:38:57;;;;;;;3.03;1.65;;;;;;;;;;6218099;23;20377;-81
2023/12/28 00:41:42;;;;;;;4.38;1.77;;;;;;;;;;6218304;23;20003;-81
2023/12/28 00:44:27;;;;;;;2.83;1.90;;;;;;;;;;6218397;23;20000;-78
2023/12/28 00:47:12;;;;;;;4.50;2.00;;;;;;;;;;6196611;23;20027;-80
2023/12/28 00:49:58;;;;;;;6.07;2.05;;;;;;;;;;6217973;23;20063;-81
2023/12/28 00:52:43;;;;;;;5.32;2.58;;;;;;;;;;6197221;23;20028;-81
2023/12/28 00:55:28;;;;;;;7.35;2.13;;;;;;;;;;6218643;23;20000;-82
2023/12/28 00:58:13;;;;;;;4.07;1.88;;;;;;;;;;6239310;23;20007;-80
2023/12/28 01:00:58;;;;;;;3.58;2.17;;;;;;;;;;6218225;23;20004;-80
2023/12/28 01:03:44;;;;;;;3.85;1.77;;;;;;;;;;6218095;23;20337;-81
2023/12/28 01:06:29;;;;;;;4.55;2.28;;;;;;;;;;6217658;23;20006;-81
2023/12/28 01:09:14;;;;;;;3.88;2.00;;;;;;;;;;6217953;23;20003;-81
2023/12/28 01:11:59;;;;;;;5.13;1.80;;;;;;;;;;6218314;23;20463;-80
2023/12/28 01:14:44;;;;;;;3.45;1.85;;;;;;;;;;6218029;23;20183;-81
2023/12/28 01:17:31;;;;;;;6.88;1.90;;;;;;;;;;6217624;23;20078;-81
2023/12/28 01:20:16;;;;;;;4.85;2.85;;;;;;;;;;6217761;23;20337;-80
2023/12/28 01:23:02;;;;;;;5.20;2.08;;;;;;;;;;6217744;23;20002;-80
2023/12/28 01:25:47;;;;;;;3.00;2.13;;;;;;;;;;6218379;23;20087;-80
2023/12/28 01:28:32;;;;;;;5.32;2.25;;;;;;;;;;6217655;23;20008;-80
2023/12/28 01:31:17;;;;;;;2.70;1.50;;;;;;;;;;6218154;23;19999;-80
2023/12/28 01:34:02;;;;;;;3.40;1.88;;;;;;;;;;6218000;23;20004;-79
2023/12/28 01:36:48;;;;;;;3.72;1.75;;;;;;;;;;6218086;23;20605;-80
2023/12/28 01:39:33;;;;;;;3.65;1.85;;;;;;;;;;6217690;23;20004;-80
2023/12/28 01:42:18;;;;;;;3.13;1.83;;;;;;;;;;6218295;23;19995;-79
2023/12/28 01:45:04;;;;;;;3.65;1.85;;;;;;;;;;6218079;23;20011;-79
2023/12/28 01:47:50;;;;;;;6.25;2.03;;;;;;;;;;6217398;23;20004;-80
2023/12/28 01:50:35;;;;;;;3.17;1.40;;;;;;;;;;6218218;23;20052;-79
2023/12/28 01:53:21;;;;;;;2.85;1.55;;;;;;;;;;6220053;23;19992;-83
2023/12/28 01:56:07;;;;;;;3.33;1.75;;;;;;;;;;6220128;23;20222;-81
2023/12/28 01:58:53;;;;;;;2.40;2.00;;;;;;;;;;6219664;23;20000;-80
2023/12/28 02:01:38;;;;;;;5.75;1.70;;;;;;;;;;6220009;23;20000;-81
2023/12/28 02:04:28;;;;;;;2.53;1.60;;;;;;;;;;6219635;23;20333;-82
2023/12/28 02:07:14;;;;;;;4.05;1.67;;;;;;;;;;6219264;23;20023;-81
2023/12/28 02:09:59;;;;;;;2.60;1.52;;;;;;;;;;6219410;22;20000;-81
2023/12/28 02:12:44;;;;;;;6.90;2.05;;;;;;;;;;6219500;23;20003;-82
2023/12/28 02:15:29;;;;;;;4.28;2.17;;;;;;;;;;6218914;23;20016;-82
2023/12/28 02:18:17;;;;;;;7.75;3.53;;;;;;;;;;6219232;23;20063;-81
2023/12/28 02:21:04;;;;;;;8.82;3.13;;;;;;;;;;6219596;23;20059;-81
2023/12/28 02:23:49;;;;;;;4.40;2.03;;;;;;;;;;6219305;23;20508;-81
2023/12/28 02:26:34;;;;;;;3.30;1.90;;;;;;;;;;6220129;23;20011;-81
2023/12/28 02:29:19;;;;;;;3.25;1.73;;;;;;;;;;6219674;23;20027;-80
2023/12/28 02:32:08;;;;;;;7.90;2.10;;;;;;;;;;6219542;23;20028;-80
2023/12/28 02:34:56;;;;;;;4.03;2.10;;;;;;;;;;6219749;23;20054;-81
2023/12/28 02:37:42;;;;;;;4.57;1.80;;;;;;;;;;6219333;23;20000;-80
2023/12/28 02:40:29;;;;;;;3.28;1.50;;;;;;;;;;6219642;23;20007;-80
2023/12/28 02:43:14;;;;;;;4.20;2.08;;;;;;;;;;6219403;23;20042;-80
2023/12/28 02:45:59;;;;;;;3.67;2.00;;;;;;;;;;6219351;23;20007;-81
2023/12/28 02:48:45;;;;;;;4.72;1.92;;;;;;;;;;6219467;23;20015;-80
2023/12/28 02:51:30;;;;;;;3.72;2.45;;;;;;;;;;6219133;23;20008;-80
2023/12/28 02:54:15;;;;;;;2.80;1.77;;;;;;;;;;6219300;23;20031;-80
2023/12/28 02:57:00;;;;;;;4.70;2.47;;;;;;;;;;6219577;23;20007;-81
2023/12/28 02:59:45;;;;;;;4.93;2.03;;;;;;;;;;6219682;23;19992;-81
2023/12/28 03:02:31;;;;;;;4.78;2.28;;;;;;;;;;6219067;23;20007;-80
2023/12/28 03:05:16;;;;;;;4.75;2.03;;;;;;;;;;6219730;23;19996;-80
2023/12/28 03:08:02;;;;;;;4.53;2.08;;;;;;;;;;6218835;23;20029;-81
2023/12/28 03:10:47;;;;;;;3.15;1.73;;;;;;;;;;6219126;23;20035;-82
2023/12/28 03:13:32;;;;;;;3.22;1.98;;;;;;;;;;6218805;23;20028;-81
2023/12/28 03:16:17;;;;;;;6.78;2.33;;;;;;;;;;6218862;23;20000;-81
2023/12/28 03:19:03;;;;;;;3.30;1.70;;;;;;;;;;6219046;23;20000;-82
2023/12/28 03:21:48;;;;;;;3.47;1.90;;;;;;;;;;6219220;23;20015;-81
2023/12/28 03:24:33;;;;;;;2.35;1.75;;;;;;;;;;6218870;23;20000;-78
2023/12/28 03:27:18;;;;;;;5.97;2.63;;;;;;;;;;6219251;23;19996;-81
2023/12/28 03:30:04;;;;;;;3.67;1.85;;;;;;;;;;6218683;23;19996;-81
2023/12/28 03:32:49;;;;;;;4.88;2.80;;;;;;;;;;6218465;23;20014;-80
2023/12/28 03:35:34;;;;;;;5.68;1.85;;;;;;;;;;6218748;23;20000;-81
2023/12/28 03:38:20;;;;;;;3.70;1.90;;;;;;;;;;6218714;23;20020;-81
2023/12/28 03:41:05;;;;;;;4.28;2.03;;;;;;;;;;6219314;23;20008;-81
2023/12/28 03:43:50;;;;;;;4.68;1.80;;;;;;;;;;6218392;23;20044;-81
2023/12/28 03:46:35;;;;;;;2.95;1.80;;;;;;;;;;6198089;23;20086;-81
2023/12/28 03:49:21;;;;;;;4.32;1.88;;;;;;;;;;6218866;23;20050;-81
2023/12/28 03:52:06;;;;;;;4.93;2.47;;;;;;;;;;6218848;23;20061;-81
2023/12/28 03:54:52;;;;;;;6.10;2.35;;;;;;;;;;6218434;23;19996;-80
2023/12/28 03:57:37;;;;;;;5.57;3.10;;;;;;;;;;6219135;23;19996;-81
2023/12/28 04:00:23;;;;;;;5.85;2.25;;;;;;;;;;6219178;23;20000;-80
2023/12/28 04:03:08;;;;;;;5.70;3.15;;;;;;;;;;6218477;23;19996;-80
2023/12/28 04:05:53;;;;;;;4.45;2.17;;;;;;;;;;6218791;23;19996;-80
2023/12/28 04:08:39;;;;;;;5.32;1.80;;;;;;;;;;6218916;23;20051;-82
2023/12/28 04:11:24;;;;;;;3.60;1.77;;;;;;;;;;6219258;23;20090;-79
2023/12/28 04:14:09;;;;;;;3.85;1.63;;;;;;;;;;6218161;23;20022;-79
2023/12/28 04:16:54;;;;;;;3.92;1.70;;;;;;;;;;6218721;23;20004;-79
2023/12/28 04:19:40;;;;;;;3.88;1.73;;;;;;;;;;6218592;23;20066;-79
2023/12/28 04:22:25;;;;;;;3.58;2.30;;;;;;;;;;6218529;23;20000;-82
2023/12/28 04:25:11;;;;;;;4.93;2.03;;;;;;;;;;6217608;23;20007;-80
2023/12/28 04:27:56;;;;;;;2.58;1.42;;;;;;;;;;6218599;23;20007;-82
2023/12/28 04:30:41;;;;;;;3.03;1.70;;;;;;;;;;6218368;23;19996;-81
2023/12/28 04:33:26;;;;;;;4.90;1.45;;;;;;;;;;6218533;23;20334;-81
2023/12/28 04:36:11;;;;;;;4.93;2.42;;;;;;;;;;6217857;23;20498;-80
2023/12/28 04:38:57;;;;;;;3.47;1.70;;;;;;;;;;6218359;23;20000;-81
2023/12/28 04:41:42;;;;;;;2.67;1.67;;;;;;;;;;6218917;23;20038;-80
2023/12/28 04:44:27;;;;;;;4.35;2.00;;;;;;;;;;6218472;23;20390;-81
2023/12/28 04:47:13;;;;;;;2.90;1.50;;;;;;;;;;6205619;23;20003;-81
2023/12/28 04:49:58;;;;;;;4.38;2.10;;;;;;;;;;6230585;23;19996;-81
2023/12/28 04:52:42;;;;;;;5.38;2.38;;;;;;;;;;6261037;23;20007;-80
2023/12/28 04:55:26;;;;;;;6.50;2.70;;;;;;;;;;6267239;23;20000;-80
2023/12/28 04:58:14;;;;;;;7.72;3.22;;;;;;;;;;6248062;22;19984;-81
2023/12/28 05:01:00;;;;;;;7.13;3.30;;;;;;;;;;6270226;22;20002;-80
2023/12/28 05:03:44;;;;;;;4.78;2.50;;;;;;;;;;6241131;23;20318;-80
2023/12/28 05:06:29;;;;;;;6.38;3.28;;;;;;;;;;6218986;23;20057;-81
2023/12/28 05:09:15;;;;;;;7.57;2.90;;;;;;;;;;6218897;23;20000;-81
2023/12/28 05:12:00;;;;;;;7.18;2.55;;;;;;;;;;6219141;23;19996;-81
2023/12/28 05:14:45;;;;;;;5.13;2.30;;;;;;;;;;6218056;23;20459;-80
2023/12/28 05:17:31;;;;;;;5.35;2.15;;;;;;;;;;6218304;23;19997;-80
2023/12/28 05:20:16;;;;;;;4.05;2.03;;;;;;;;;;6218270;23;20004;-80
2023/12/28 05:23:01;;;;;;;4.75;2.00;;;;;;;;;;6218196;23;20004;-80
2023/12/28 05:25:46;;;;;;;5.65;1.95;;;;;;;;;;6218189;23;20007;-80
2023/12/28 05:28:32;;;;;;;5.70;2.08;;;;;;;;;;6219957;23;20004;-79
2023/12/28 05:31:17;;;;;;;3.47;2.10;;;;;;;;;;6220157;23;20079;-80
2023/12/28 05:34:02;;;;;;;4.50;2.00;;;;;;;;;;6219978;23;20005;-80
2023/12/28 05:36:47;;;;;;;2.53;1.85;;;;;;;;;;6219547;23;19996;-82
2023/12/28 05:39:33;;;;;;;3.97;1.80;;;;;;;;;;6219880;23;20068;-81
2023/12/28 05:42:18;;;;;;;4.05;1.98;;;;;;;;;;6220176;23;20000;-81
2023/12/28 05:45:04;;;;;;;2.17;1.50;;;;;;;;;;6219503;23;20007;-80
2023/12/28 05:47:50;;;;;;;3.22;1.50;;;;;;;;;;6219457;23;20000;-81
2023/12/28 05:50:35;;;;;;;3.83;1.67;;;;;;;;;;6199172;23;20012;-81
2023/12/28 05:53:20;;;;;;;3.80;1.90;;;;;;;;;;6220280;23;20000;-82
2023/12/28 05:56:05;;;;;;;3.58;1.90;;;;;;;;;;6219947;23;19992;-82
2023/12/28 05:58:51;;;;;;;5.30;2.60;;;;;;;;;;6219409;23;19992;-81
2023/12/28 06:01:43;;;;;;;7.55;3.63;;;;;;;;;;6219606;23;20000;-82
2023/12/28 06:04:28;;;;;;;6.97;4.07;;;;;;;;;;6219477;23;19997;-82
2023/12/28 06:07:13;;;;;;;5.20;2.90;;;;;;;;;;6219537;23;20003;-81
2023/12/28 06:09:59;;;;;;;12.90;2.50;;;;;;;;;;6219567;22;20054;-82
2023/12/28 06:12:44;;;;;;;5.20;2.50;;;;;;;;;;6219940;23;20000;-81
2023/12/28 06:15:29;;;;;;;5.40;2.30;;;;;;;;;;6218965;23;20319;-82
2023/12/28 06:18:14;;;;;;;7.43;2.47;;;;;;;;;;6219237;23;20000;-81
2023/12/28 06:20:59;;;;;;;5.45;2.67;;;;;;;;;;6219567;23;20004;-80
2023/12/28 06:23:45;;;;;;;8.20;3.25;;;;;;;;;;6219297;23;20039;-81
2023/12/28 06:26:30;;;;;;;4.50;2.35;;;;;;;;;;6219422;23;20088;-81
2023/12/28 06:29:16;;;;;;;5.57;2.33;;;;;;;;;;6219663;23;20425;-80
2023/12/28 06:32:01;;;;;;;4.22;1.83;;;;;;;;;;6219561;23;20007;-81
2023/12/28 06:34:46;;;;;;;2.88;1.83;;;;;;;;;;6219279;23;20000;-79
2023/12/28 06:37:32;;;;;;;6.95;1.65;;;;;;;;;;6219611;23;20004;-80
2023/12/28 06:40:17;;;;;;;2.45;1.73;;;;;;;;;;6218502;23;20008;-80
2023/12/28 06:43:02;;;;;;;3.83;2.00;;;;;;;;;;6219490;23;20000;-80
2023/12/28 06:45:48;;;;;;;4.43;2.05;;;;;;;;;;6218571;23;20000;-80
2023/12/28 06:48:33;;;;;;;2.72;1.77;;;;;;;;;;6219179;23;20050;-80
2023/12/28 06:51:20;;;;;;;4.00;2.00;;;;;;;;;;6219690;23;20075;-80
2023/12/28 06:54:05;;;;;;;3.63;1.55;;;;;;;;;;6219242;23;19996;-80
2023/12/28 06:56:51;;;;;;;3.33;2.13;;;;;;;;;;6219509;23;20434;-81
2023/12/28 06:59:36;;;;;;;6.13;2.05;;;;;;;;;;6219262;23;20079;-82
2023/12/28 07:02:22;;;;;;;3.13;1.90;;;;;;;;;;6218927;23;19996;-83
2023/12/28 07:05:08;;;;;;;4.03;1.90;;;;;;;;;;6218739;23;20476;-84
2023/12/28 07:07:53;;;;;;;7.00;2.30;;;;;;;;;;6219369;23;20328;-82
2023/12/28 07:10:38;;;;;;;6.32;2.10;;;;;;;;;;6219578;23;19999;-82
2023/12/28 07:13:24;;;;;;;5.03;2.47;;;;;;;;;;6219404;23;20272;-82
2023/12/28 07:16:09;;;;;;;5.82;2.33;;;;;;;;;;6218700;23;20465;-81
2023/12/28 07:18:54;;;;;;;4.30;2.38;;;;;;;;;;6198975;23;20051;-81
2023/12/28 07:21:39;;;;;;;7.68;2.50;;;;;;;;;;6218967;23;20124;-81
2023/12/28 07:24:25;;;;;;;9.73;2.80;;;;;;;;;;6239552;23;20000;-82
2023/12/28 07:27:10;;;;;;;5.20;1.92;;;;;;;;;;6218703;23;20080;-81
2023/12/28 07:29:55;;;;;;;5.97;2.42;;;;;;;;;;6219297;23;19997;-81
2023/12/28 07:32:40;;;;;;;4.55;2.40;;;;;;;;;;6218906;23;20004;-81
2023/12/28 07:35:26;;;;;;;6.32;2.10;;;;;;;;;;6218528;23;19996;-81
2023/12/28 07:38:11;;;;;;;7.60;2.63;;;;;;;;;;6218542;23;20003;-81
2023/12/28 07:40:56;;;;;;;4.15;2.45;;;;;;;;;;6219292;23;20004;-82
2023/12/28 07:43:42;;;;;;;5.45;2.33;;;;;;;;;;6218912;23;20079;-81
2023/12/28 07:46:27;;;;;;;4.32;2.63;;;;;;;;;;6218095;23;20004;-81
2023/12/28 07:49:12;;;;;;;7.35;3.22;;;;;;;;;;6218349;23;20000;-81
2023/12/28 07:51:57;;;;;;;6.72;3.20;;;;;;;;;;6219189;23;19996;-81
2023/12/28 07:54:42;;;;;;;6.88;2.83;;;;;;;;;;6218745;23;20000;-81
2023/12/28 07:57:28;;;;;;;5.65;2.95;;;;;;;;;;6218730;23;20147;-81
2023/12/28 08:00:13;;;;;;;3.42;1.98;;;;;;;;;;6218771;23;20004;-81
2023/12/28 08:02:58;;;;;;;3.20;1.85;;;;;;;;;;6218943;23;19996;-80
2023/12/28 08:05:44;;;;;;;7.82;2.90;;;;;;;;;;6197779;23;20088;-83
2023/12/28 08:08:29;;;;;;;4.28;2.33;;;;;;;;;;6218546;23;20248;-82
2023/12/28 08:11:14;;;;;;;4.38;2.85;;;;;;;;;;6218488;23;19996;-82
2023/12/28 08:14:00;;;;;;;5.30;2.58;;;;;;;;;;6218503;23;20016;-83
2023/12/28 08:16:45;;;;;;;5.78;2.58;;;;;;;;;;6218109;23;20081;-82
2023/12/28 08:19:30;;;;;;;4.88;1.92;;;;;;;;;;6218328;23;20098;-83
2023/12/28 08:22:15;;;;;;;5.68;2.58;;;;;;;;;;6218449;23;20356;-82
2023/12/28 08:25:01;;;;;;;5.32;2.78;;;;;;;;;;6218476;23;20000;-82
2023/12/28 08:27:46;;;;;;;6.70;3.05;;;;;;;;;;6218266;23;20054;-82
2023/12/28 08:30:31;;;;;;;7.03;2.75;;;;;;;;;;6217852;23;20000;-82
2023/12/28 08:33:17;;;;;;;7.25;3.10;;;;;;;;;;6218167;23;20027;-82
2023/12/28 08:36:03;;;;;;;7.60;3.50;;;;;;;;;;6217924;23;20003;-82
2023/12/28 08:38:49;;;;;;;6.93;3.13;;;;;;;;;;6217569;23;20050;-80
2023/12/28 08:41:34;;;;;;;8.98;3.65;;;;;;;;;;6218094;23;20004;-82
2023/12/28 08:44:19;;;;;;;9.20;3.17;;;;;;;;;;6218071;23;20035;-82
2023/12/28 08:47:05;;;;;;;4.72;2.60;;;;;;;;;;6217620;23;20057;-81
2023/12/28 08:49:50;;;;;;;7.30;3.33;;;;;;;;;;6218013;23;20010;-82
2023/12/28 08:52:35;;;;;;;7.47;2.88;;;;;;;;;;6218239;23;19999;-82
2023/12/28 08:55:21;;;;;;;9.00;3.80;;;;;;;;;;6218101;23;20058;-81
2023/12/28 08:58:07;;;;;;;7.97;2.63;;;;;;;;;;6217999;23;20389;-81
2023/12/28 09:00:52;;;;;;;7.55;3.15;;;;;;;;;;6218514;23;20008;-81
2023/12/28 09:03:37;;;;;;;6.63;3.03;;;;;;;;;;6239285;23;20011;-81
2023/12/28 09:06:22;;;;;;;11.02;3.60;;;;;;;;;;6217565;23;20091;-81
2023/12/28 09:09:08;;;;;;;7.95;3.08;;;;;;;;;;6217709;23;20083;-81
2023/12/28 09:11:53;;;;;;;8.35;3.33;;;;;;;;;;6239264;22;19998;-81
2023/12/28 09:14:38;;;;;;;9.60;4.32;;;;;;;;;;6217751;23;20024;-80
2023/12/28 09:17:24;;;;;;;9.05;4.30;;;;;;;;;;6217988;23;20095;-80
2023/12/28 09:20:09;;;;;;;8.85;4.03;;;;;;;;;;6217549;23;20007;-81
2023/12/28 09:22:56;;;;;;;9.85;3.90;;;;;;;;;;6217875;23;20032;-78
2023/12/28 09:25:41;;;;;;;9.35;3.63;;;;;;;;;;6217810;23;19996;-82
2023/12/28 09:28:26;;;;;;;8.93;4.28;;;;;;;;;;6217173;23;20089;-85
2023/12/28 09:31:11;;;;;;;10.27;4.65;;;;;;;;;;6217573;23;19992;-83
2023/12/28 09:33:57;;;;;;;10.10;4.65;;;;;;;;;;6218157;23;20075;-83
2023/12/28 09:36:42;;;;;;;11.60;6.25;;;;;;;;;;6217894;23;20007;-82
2023/12/28 09:39:27;;;;;;;11.95;5.72;;;;;;;;;;6217382;23;20436;-83
2023/12/28 09:42:35;;;;;;;13.65;5.18;;;;;;;;;;6217891;23;19996;-83
2023/12/28 09:45:21;;;;;;;10.63;5.68;;;;;;;;;;6217580;23;20204;-82
2023/12/28 09:48:06;;;;;;;11.00;5.60;;;;;;;;;;6217297;23;20011;-82
2023/12/28 09:50:54;;;;;;;13.50;5.63;;;;;;;;;;6218235;23;20007;-81
2023/12/28 09:53:39;;;;;;;11.57;5.45;;;;;;;;;;6197427;23;20437;-82
2023/12/28 09:56:24;;;;;;;14.90;6.90;;;;;;;;;;6217733;23;20419;-81
2023/12/28 09:59:10;;;;;;;15.68;6.38;;;;;;;;;;6217572;23;19997;-81
2023/12/28 10:01:56;;;;;;;10.23;5.07;;;;;;;;;;6218319;23;20417;-81
2023/12/28 10:04:41;;;;;;;9.57;5.15;;;;;;;;;;6217570;23;19996;-82
2023/12/28 10:07:26;;;;;;;13.13;5.40;;;;;;;;;;6217592;23;20089;-81
2023/12/28 10:10:12;;;;;;;11.98;5.25;;;;;;;;;;6217794;22;20083;-81
2023/12/28 10:12:58;;;;;;;9.35;4.65;;;;;;;;;;6218816;23;20000;-81
2023/12/28 10:15:43;;;;;;;13.10;6.05;;;;;;;;;;6198733;23;20494;-80
2023/12/28 10:18:29;;;;;;;10.85;5.22;;;;;;;;;;6219260;23;19997;-81
2023/12/28 10:21:14;;;;;;;12.95;5.75;;;;;;;;;;6220116;23;20007;-80
2023/12/28 10:24:01;;;;;;;10.05;4.18;;;;;;;;;;6219979;23;20008;-80
2023/12/28 10:26:46;;;;;;;8.77;4.00;;;;;;;;;;6219816;23;20285;-81
2023/12/28 10:29:32;;;;;;;9.88;4.30;;;;;;;;;;6220444;23;20027;-80
2023/12/28 10:32:17;;;;;;;9.30;4.25;;;;;;;;;;6219660;23;20373;-81
2023/12/28 10:35:02;;;;;;;11.25;4.95;;;;;;;;;;6198620;23;19996;-82
2023/12/28 10:37:50;;;;;;;9.88;3.88;;;;;;;;;;6219456;23;20000;-82
2023/12/28 10:40:36;;;;;;;12.98;5.10;;;;;;;;;;6219424;23;19996;-80
2023/12/28 10:43:23;;;;;;;11.23;4.15;;;;;;;;;;6226304;23;20063;-81
2023/12/28 10:46:09;;;;;;;8.60;4.07;;;;;;;;;;6226864;23;20000;-80
2023/12/28 10:48:59;;;;;;;9.15;3.90;;;;;;;;;;6219474;23;20030;-82
2023/12/28 10:51:45;;;;;;;;;;;;;;;;;;6219778;23;20003;-81
2023/12/28 10:54:44;;;;;;;5.90;3.17;;;;;;;;;;6218687;23;19900;-82
2023/12/28 10:57:32;;;;;;;5.50;2.92;;;;;;;;;;6219204;23;20000;-81
2023/12/28 11:00:22;;;;;;;7.95;3.75;;;;;;;;;;6219565;23;20046;-82
2023/12/28 11:03:09;;;;;;;6.13;2.70;;;;;;;;;;6218841;23;19996;-82
2023/12/28 11:05:55;;;;;;;5.80;2.85;;;;;;;;;;6198199;23;20004;-82
2023/12/28 11:08:42;;;;;;;4.30;2.40;;;;;;;;;;6240635;23;20083;-81
2023/12/28 11:11:29;;;;;;;6.38;2.97;;;;;;;;;;6219615;23;20135;-82
2023/12/28 11:14:16;;;;;;;5.30;2.50;;;;;;;;;;6219106;23;20085;-83
2023/12/28 11:17:01;;;;;;;8.05;2.38;;;;;;;;;;6219170;23;20007;-80
2023/12/28 11:19:48;;;;;;;6.60;3.63;;;;;;;;;;6219037;23;20370;-81
2023/12/28 11:22:33;;;;;;;5.32;2.20;;;;;;;;;;6219233;23;20000;-81
2023/12/28 11:25:18;;;;;;;6.68;2.22;;;;;;;;;;6218971;23;19999;-80
2023/12/28 11:28:10;;;;;;;6.43;2.20;;;;;;;;;;6219364;23;20000;-80
2023/12/28 11:30:56;;;;;;;4.55;1.70;;;;;;;;;;6219235;23;20004;-80
2023/12/28 11:33:45;;;;;;;3.50;2.00;;;;;;;;;;6219215;23;20374;-80
2023/12/28 11:36:30;;;;;;;7.88;2.00;;;;;;;;;;6219179;23;19996;-80
2023/12/28 11:39:24;;;;;;;3.50;2.05;;;;;;;;;;6219360;23;20346;-80
2023/12/28 11:42:09;;;;;;;4.30;2.15;;;;;;;;;;6218715;23;20042;-80
2023/12/28 11:44:55;;;;;;;11.23;3.35;;;;;;;;;;6219025;23;19992;-80
2023/12/28 11:47:41;;;;;;;10.93;3.55;;;;;;;;;;6218771;23;20033;-82
2023/12/28 11:50:26;;;;;;;9.50;3.33;;;;;;;;;;6218565;23;19992;-82
2023/12/28 11:53:12;;;;;;;4.97;2.10;;;;;;;;;;6218666;23;19996;-83
2023/12/28 11:56:02;;;;;;;7.45;2.08;;;;;;;;;;6219172;23;19992;-82
2023/12/28 11:58:47;;;;;;;;;;;;;;;;;;6218644;23;20000;-81
2023/12/28 12:01:33;;;;;;;3.97;1.80;;;;;;;;;;6218472;23;19953;-80
2023/12/28 12:04:21;;;;;;;5.75;2.00;;;;;;;;;;6197583;23;20007;-81
2023/12/28 12:07:06;;;;;;;2.92;1.60;;;;;;;;;;6239269;23;20004;-81
2023/12/28 12:09:58;;;;;;;4.32;1.90;;;;;;;;;;6218421;22;20004;-80
2023/12/28 12:12:44;;;;;;;3.78;1.55;;;;;;;;;;6218675;23;20000;-81
2023/12/28 12:15:29;;;;;;;3.55;1.45;;;;;;;;;;6218356;23;20079;-81
2023/12/28 12:18:15;;;;;;;3.72;1.52;;;;;;;;;;6218791;23;20333;-80
2023/12/28 12:21:00;;;;;;;3.38;1.70;;;;;;;;;;6218990;23;20008;-81
2023/12/28 12:23:46;;;;;;;3.08;1.75;;;;;;;;;;6218560;23;19996;-81
2023/12/28 12:26:31;;;;;;;2.45;1.85;;;;;;;;;;6219040;23;20003;-81
2023/12/28 12:29:17;;;;;;;3.63;1.90;;;;;;;;;;6197557;23;20004;-81
2023/12/28 12:32:03;;;;;;;2.40;1.55;;;;;;;;;;6218390;23;20000;-81
2023/12/28 12:34:48;;;;;;;3.55;1.85;;;;;;;;;;6218130;23;20433;-82
2023/12/28 12:37:33;;;;;;;2.20;1.63;;;;;;;;;;6217844;23;20062;-80
2023/12/28 12:40:20;;;;;;;2.33;1.92;;;;;;;;;;6218592;23;20351;-79
2023/12/28 12:43:08;;;;;;;7.28;2.45;;;;;;;;;;6218513;23;20439;-80
2023/12/28 12:45:53;;;;;;;3.58;2.20;;;;;;;;;;6218457;23;19996;-81
2023/12/28 12:48:40;;;;;;;3.47;1.85;;;;;;;;;;6218220;23;20049;-81
2023/12/28 12:51:26;;;;;;;4.50;2.15;;;;;;;;;;6218537;23;20210;-81
2023/12/28 12:54:11;;;;;;;5.25;2.00;;;;;;;;;;6219271;23;19999;-80
2023/12/28 12:56:57;;;;;;;4.03;1.95;;;;;;;;;;6219120;23;19996;-80
2023/12/28 12:59:42;;;;;;;6.65;2.90;;;;;;;;;;6218761;23;20444;-80
2023/12/28 13:02:27;;;;;;;4.25;2.35;;;;;;;;;;6218595;23;20000;-82
2023/12/28 13:05:13;;;;;;;6.70;2.67;;;;;;;;;;6218521;23;20000;-81
2023/12/28 13:07:58;;;;;;;2.95;1.35;;;;;;;;;;6220956;23;20031;-82
2023/12/28 13:10:43;;;;;;;4.68;1.65;;;;;;;;;;6226415;23;20015;-83
2023/12/28 13:13:32;;;;;;;3.50;1.45;;;;;;;;;;6237981;23;20075;-80
2023/12/28 13:16:17;;;;;;;2.10;1.77;;;;;;;;;;6232478;23;19997;-80
2023/12/28 13:19:08;;;;;;;4.53;2.03;;;;;;;;;;6232850;23;19996;-81
2023/12/28 13:21:52;;;;;;;2.92;1.75;;;;;;;;;;6263498;23;20034;-82
2023/12/28 13:24:36;;;;;;;4.03;2.03;;;;;;;;;;6265132;23;20015;-80
2023/12/28 13:27:21;;;;;;;3.47;1.77;;;;;;;;;;6221338;23;20092;-81
2023/12/28 13:30:07;;;;;;;3.38;1.48;;;;;;;;;;6237169;23;20008;-82
2023/12/28 13:32:52;;;;;;;3.05;1.73;;;;;;;;;;6230428;23;20011;-81
2023/12/28 13:35:38;;;;;;;4.07;1.90;;;;;;;;;;6226420;23;20156;-80
2023/12/28 13:38:24;;;;;;;4.95;1.90;;;;;;;;;;6224836;23;20330;-81
2023/12/28 13:41:09;;;;;;;4.78;2.10;;;;;;;;;;6219416;23;20047;-80
2023/12/28 13:44:01;;;;;;;3.45;2.20;;;;;;;;;;6218478;23;20445;-80
2023/12/28 13:46:47;;;;;;;4.47;1.83;;;;;;;;;;6217474;23;20066;-80
2023/12/28 13:49:38;;;;;;;2.70;1.65;;;;;;;;;;6219944;23;19996;-80
2023/12/28 13:52:23;;;;;;;3.42;1.83;;;;;;;;;;6219755;23;20220;-81
2023/12/28 13:55:09;;;;;;;2.55;1.73;;;;;;;;;;6219644;23;20042;-80
2023/12/28 13:57:55;;;;;;;3.17;1.38;;;;;;;;;;6220467;23;20327;-81
2023/12/28 14:00:40;;;;;;;2.33;1.15;;;;;;;;;;6219979;23;20050;-80
2023/12/28 14:03:25;;;;;;;3.85;1.50;;;;;;;;;;6219107;23;20015;-80
2023/12/28 14:06:10;;;;;;;4.00;1.60;;;;;;;;;;6218705;23;20007;-80
2023/12/28 14:08:57;;;;;;;3.85;2.00;;;;;;;;;;6219915;23;20008;-80
2023/12/28 14:11:42;;;;;;;3.10;1.67;;;;;;;;;;6220280;23;19996;-79
2023/12/28 14:14:27;;;;;;;3.47;1.95;;;;;;;;;;6219729;23;20016;-80
2023/12/28 14:17:13;;;;;;;4.40;1.65;;;;;;;;;;6219977;23;19996;-82
2023/12/28 14:19:58;;;;;;;4.53;1.80;;;;;;;;;;6219649;23;20448;-82
2023/12/28 14:22:43;;;;;;;3.17;1.50;;;;;;;;;;6225243;23;19996;-82
2023/12/28 14:25:29;;;;;;;3.05;1.42;;;;;;;;;;6220309;23;20426;-82
2023/12/28 14:28:14;;;;;;;3.45;1.42;;;;;;;;;;6219710;23;20075;-82
2023/12/28 14:30:59;;;;;;;2.50;1.58;;;;;;;;;;6214838;23;20008;-79
2023/12/28 14:33:45;;;;;;;3.33;2.05;;;;;;;;;;6219317;23;20337;-83
2023/12/28 14:36:31;;;;;;;5.63;1.98;;;;;;;;;;6219436;23;20057;-83
2023/12/28 14:39:19;;;;;;;4.70;1.98;;;;;;;;;;6219320;23;20003;-80
2023/12/28 14:42:05;;;;;;;5.15;1.90;;;;;;;;;;6219366;23;20230;-82
2023/12/28 14:44:51;;;;;;;2.35;1.52;;;;;;;;;;6219565;23;20003;-81
2023/12/28 14:47:36;;;;;;;4.22;2.00;;;;;;;;;;6219389;23;20004;-80
2023/12/28 14:50:22;;;;;;;3.55;2.22;;;;;;;;;;6219671;23;19999;-80
2023/12/28 14:53:07;;;;;;;3.50;1.73;;;;;;;;;;6219166;23;20000;-81
2023/12/28 14:55:52;;;;;;;1.75;1.48;;;;;;;;;;6219234;23;19997;-81
2023/12/28 14:58:38;;;;;;;8.60;2.60;;;;;;;;;;6218920;23;20028;-81
2023/12/28 15:01:24;;;;;;;6.47;2.72;;;;;;;;;;6219033;23;20000;-81
2023/12/28 15:04:09;;;;;;;3.67;1.80;;;;;;;;;;6218875;23;20000;-82
2023/12/28 15:06:54;;;;;;;3.75;2.15;;;;;;;;;;6218856;23;20333;-82
2023/12/28 15:09:40;;;;;;;7.63;2.70;;;;;;;;;;6218905;22;20057;-81
2023/12/28 15:12:25;;;;;;;5.35;1.90;;;;;;;;;;6219137;23;19992;-81
2023/12/28 15:15:12;;;;;;;2.70;1.90;;;;;;;;;;6219181;23;20012;-81
2023/12/28 15:17:57;;;;;;;3.97;1.95;;;;;;;;;;6219129;23;20000;-81
2023/12/28 15:20:46;;;;;;;3.50;1.85;;;;;;;;;;6219201;23;20079;-81
2023/12/28 15:23:31;;;;;;;4.50;2.00;;;;;;;;;;6219427;23;20692;-81
2023/12/28 15:26:17;;;;;;;4.22;2.53;;;;;;;;;;6219391;23;20000;-80
2023/12/28 15:29:03;;;;;;;5.18;2.72;;;;;;;;;;6218727;23;20032;-79
2023/12/28 15:31:48;;;;;;;3.50;2.30;;;;;;;;;;6219123;23;20083;-82
2023/12/28 15:34:33;;;;;;;3.03;1.73;;;;;;;;;;6218692;23;20031;-80
2023/12/28 15:37:19;;;;;;;4.35;1.80;;;;;;;;;;6218862;23;20000;-83
2023/12/28 15:40:04;;;;;;;4.00;1.83;;;;;;;;;;6219170;23;20000;-80
2023/12/28 15:42:50;;;;;;;4.05;1.88;;;;;;;;;;6219180;23;20004;-81
2023/12/28 15:45:36;;;;;;;3.03;1.88;;;;;;;;;;6218710;23;20011;-81
2023/12/28 15:48:21;;;;;;;3.50;2.35;;;;;;;;;;6218601;23;20000;-82
2023/12/28 15:51:07;;;;;;;3.30;2.00;;;;;;;;;;6218586;23;20007;-81
2023/12/28 15:53:53;;;;;;;2.25;1.75;;;;;;;;;;6219015;23;20007;-81
2023/12/28 15:56:38;;;;;;;4.80;2.17;;;;;;;;;;6218965;23;20000;-82
2023/12/28 15:59:24;;;;;;;2.75;1.80;;;;;;;;;;6218426;23;19996;-82
2023/12/28 16:02:09;;;;;;;3.83;1.90;;;;;;;;;;6218484;23;20003;-82
2023/12/28 16:04:57;;;;;;;3.67;2.03;;;;;;;;;;6218459;23;20003;-82
2023/12/28 16:07:43;;;;;;;4.03;2.03;;;;;;;;;;6218196;23;20030;-81
2023/12/28 16:10:28;;;;;;;4.55;2.83;;;;;;;;;;6218061;23;19996;-81
2023/12/28 16:13:13;;;;;;;5.03;2.13;;;;;;;;;;6219032;23;20003;-80
2023/12/28 16:15:58;;;;;;;8.10;1.98;;;;;;;;;;6218620;23;20016;-80
2023/12/28 16:18:44;;;;;;;4.60;2.50;;;;;;;;;;6218069;23;20011;-81
2023/12/28 16:21:30;;;;;;;1.85;1.50;;;;;;;;;;6218653;23;20058;-80
2023/12/28 16:24:16;;;;;;;4.03;2.05;;;;;;;;;;6218189;23;20027;-80
2023/12/28 16:27:01;;;;;;;4.20;2.10;;;;;;;;;;6218694;23;20035;-81
2023/12/28 16:29:47;;;;;;;4.85;2.15;;;;;;;;;;6217948;23;19992;-81
2023/12/28 16:32:32;;;;;;;3.83;1.75;;;;;;;;;;6218313;23;19996;-81